sensor_id;sensor_type;location;lat;lon;timestamp;P1;durP1;ratioP1;P2;durP2;ratioP2
14592;SDS011;7383;52.354;9.756;2023-04-19T00:00:45;3.05;;;2.85;;
14592;SDS011;7383;52.354;9.756;2023-04-19T00:03:12;3.92;;;3.60;;
14592;SDS011;7383;52.354;9.756;2023-04-19T00:05:39;3.30;;;3.00;;
14592;SDS011;7383;52.354;9.756;2023-04-19T00:08:06;3.28;;;3.08;;
14592;SDS011;7383;52.354;9.756;2023-04-19T00:10:33;3.22;;;2.95;;
14592;SDS011;7383;52.354;9.756;2023-04-19T00:13:00;2.80;;;2.60;;
14592;SDS011;7383;52.354;9.756;2023-04-19T00:15:29;2.90;;;2.70;;
14592;SDS011;7383;52.354;9.756;2023-04-19T00:17:55;2.70;;;2.50;;
14592;SDS011;7383;52.354;9.756;2023-04-19T00:20:22;2.78;;;2.58;;
14592;SDS011;7383;52.354;9.756;2023-04-19T00:22:48;2.70;;;2.50;;
14592;SDS011;7383;52.354;9.756;2023-04-19T00:25:15;2.83;;;2.50;;
14592;SDS011;7383;52.354;9.756;2023-04-19T00:27:41;2.55;;;2.33;;
14592;SDS011;7383;52.354;9.756;2023-04-19T00:30:08;2.80;;;2.55;;
14592;SDS011;7383;52.354;9.756;2023-04-19T00:32:37;2.92;;;2.70;;
14592;SDS011;7383;52.354;9.756;2023-04-19T00:35:03;2.78;;;2.58;;
14592;SDS011;7383;52.354;9.756;2023-04-19T00:37:31;2.60;;;2.40;;
14592;SDS011;7383;52.354;9.756;2023-04-19T00:39:57;2.63;;;2.42;;
14592;SDS011;7383;52.354;9.756;2023-04-19T00:42:24;2.22;;;2.00;;
14592;SDS011;7383;52.354;9.756;2023-04-19T00:44:50;2.53;;;2.33;;
14592;SDS011;7383;52.354;9.756;2023-04-19T00:47:18;2.53;;;2.35;;
14592;SDS011;7383;52.354;9.756;2023-04-19T00:49:46;2.63;;;2.42;;
14592;SDS011;7383;52.354;9.756;2023-04-19T00:52:18;2.22;;;2.05;;
14592;SDS011;7383;52.354;9.756;2023-04-19T00:54:44;2.03;;;1.92;;
14592;SDS011;7383;52.354;9.756;2023-04-19T00:57:11;2.15;;;1.95;;
14592;SDS011;7383;52.354;9.756;2023-04-19T00:59:38;2.53;;;2.33;;
14592;SDS011;7383;52.354;9.756;2023-04-19T01:02:05;2.55;;;2.35;;
14592;SDS011;7383;52.354;9.756;2023-04-19T01:04:32;2.08;;;1.98;;
14592;SDS011;7383;52.354;9.756;2023-04-19T01:07:00;2.22;;;2.13;;
14592;SDS011;7383;52.354;9.756;2023-04-19T01:09:27;2.83;;;2.50;;
14592;SDS011;7383;52.354;9.756;2023-04-19T01:11:54;2.60;;;2.40;;
14592;SDS011;7383;52.354;9.756;2023-04-19T01:14:21;2.67;;;2.30;;
14592;SDS011;7383;52.354;9.756;2023-04-19T01:16:48;2.33;;;2.20;;
14592;SDS011;7383;52.354;9.756;2023-04-19T01:19:14;2.28;;;2.10;;
14592;SDS011;7383;52.354;9.756;2023-04-19T01:21:41;2.15;;;1.95;;
14592;SDS011;7383;52.354;9.756;2023-04-19T01:24:09;2.30;;;2.15;;
14592;SDS011;7383;52.354;9.756;2023-04-19T01:26:35;2.30;;;2.20;;
14592;SDS011;7383;52.354;9.756;2023-04-19T01:29:02;2.40;;;2.20;;
14592;SDS011;7383;52.354;9.756;2023-04-19T01:31:29;2.30;;;2.15;;
14592;SDS011;7383;52.354;9.756;2023-04-19T01:33:56;2.65;;;2.45;;
14592;SDS011;7383;52.354;9.756;2023-04-19T01:36:22;2.10;;;2.00;;
14592;SDS011;7383;52.354;9.756;2023-04-19T01:38:50;2.25;;;2.10;;
14592;SDS011;7383;52.354;9.756;2023-04-19T01:41:21;2.22;;;2.10;;
14592;SDS011;7383;52.354;9.756;2023-04-19T01:43:50;2.67;;;2.30;;
14592;SDS011;7383;52.354;9.756;2023-04-19T01:46:17;2.10;;;2.00;;
14592;SDS011;7383;52.354;9.756;2023-04-19T01:48:43;2.45;;;2.30;;
14592;SDS011;7383;52.354;9.756;2023-04-19T01:51:10;2.33;;;2.13;;
14592;SDS011;7383;52.354;9.756;2023-04-19T01:53:36;2.13;;;2.00;;
14592;SDS011;7383;52.354;9.756;2023-04-19T01:56:03;2.10;;;2.00;;
14592;SDS011;7383;52.354;9.756;2023-04-19T01:58:33;2.10;;;2.00;;
14592;SDS011;7383;52.354;9.756;2023-04-19T02:00:59;2.13;;;2.03;;
14592;SDS011;7383;52.354;9.756;2023-04-19T02:03:26;1.92;;;1.80;;
14592;SDS011;7383;52.354;9.756;2023-04-19T02:05:53;1.95;;;1.85;;
14592;SDS011;7383;52.354;9.756;2023-04-19T02:08:19;2.53;;;2.10;;
14592;SDS011;7383;52.354;9.756;2023-04-19T02:10:48;2.10;;;2.00;;
14592;SDS011;7383;52.354;9.756;2023-04-19T02:13:14;2.00;;;1.90;;
14592;SDS011;7383;52.354;9.756;2023-04-19T02:15:42;1.88;;;1.77;;
14592;SDS011;7383;52.354;9.756;2023-04-19T02:18:09;1.88;;;1.77;;
14592;SDS011;7383;52.354;9.756;2023-04-19T02:20:35;2.38;;;2.13;;
14592;SDS011;7383;52.354;9.756;2023-04-19T02:23:02;1.77;;;1.67;;
14592;SDS011;7383;52.354;9.756;2023-04-19T02:25:28;2.10;;;2.00;;
14592;SDS011;7383;52.354;9.756;2023-04-19T02:27:55;1.80;;;1.70;;
14592;SDS011;7383;52.354;9.756;2023-04-19T02:30:22;2.20;;;2.10;;
14592;SDS011;7383;52.354;9.756;2023-04-19T02:32:50;2.05;;;1.95;;
14592;SDS011;7383;52.354;9.756;2023-04-19T02:35:18;2.25;;;1.80;;
14592;SDS011;7383;52.354;9.756;2023-04-19T02:37:45;2.05;;;1.92;;
14592;SDS011;7383;52.354;9.756;2023-04-19T02:40:11;1.90;;;1.80;;
14592;SDS011;7383;52.354;9.756;2023-04-19T02:42:38;2.20;;;2.00;;
14592;SDS011;7383;52.354;9.756;2023-04-19T02:45:07;1.60;;;1.50;;
14592;SDS011;7383;52.354;9.756;2023-04-19T02:47:34;1.90;;;1.80;;
14592;SDS011;7383;52.354;9.756;2023-04-19T02:50:05;2.20;;;2.10;;
14592;SDS011;7383;52.354;9.756;2023-04-19T02:52:32;1.65;;;1.55;;
14592;SDS011;7383;52.354;9.756;2023-04-19T02:54:59;2.00;;;1.90;;
14592;SDS011;7383;52.354;9.756;2023-04-19T02:57:26;2.20;;;2.00;;
14592;SDS011;7383;52.354;9.756;2023-04-19T02:59:53;1.90;;;1.80;;
14592;SDS011;7383;52.354;9.756;2023-04-19T03:02:19;2.40;;;1.60;;
14592;SDS011;7383;52.354;9.756;2023-04-19T03:04:46;2.78;;;2.08;;
14592;SDS011;7383;52.354;9.756;2023-04-19T03:07:14;2.03;;;1.80;;
14592;SDS011;7383;52.354;9.756;2023-04-19T03:09:41;2.13;;;1.92;;
14592;SDS011;7383;52.354;9.756;2023-04-19T03:12:07;2.33;;;1.90;;
14592;SDS011;7383;52.354;9.756;2023-04-19T03:14:33;1.88;;;1.77;;
14592;SDS011;7383;52.354;9.756;2023-04-19T03:17:00;2.00;;;1.90;;
14592;SDS011;7383;52.354;9.756;2023-04-19T03:19:27;1.88;;;1.77;;
14592;SDS011;7383;52.354;9.756;2023-04-19T03:21:54;1.67;;;1.58;;
14592;SDS011;7383;52.354;9.756;2023-04-19T03:24:27;2.03;;;1.92;;
14592;SDS011;7383;52.354;9.756;2023-04-19T03:26:54;2.10;;;2.00;;
14592;SDS011;7383;52.354;9.756;2023-04-19T03:29:21;2.15;;;1.90;;
14592;SDS011;7383;52.354;9.756;2023-04-19T03:31:48;1.75;;;1.60;;
14592;SDS011;7383;52.354;9.756;2023-04-19T03:34:15;2.08;;;1.88;;
14592;SDS011;7383;52.354;9.756;2023-04-19T03:36:41;1.40;;;1.35;;
14592;SDS011;7383;52.354;9.756;2023-04-19T03:39:08;2.47;;;2.00;;
14592;SDS011;7383;52.354;9.756;2023-04-19T03:41:36;1.65;;;1.55;;
14592;SDS011;7383;52.354;9.756;2023-04-19T03:44:02;1.75;;;1.52;;
14592;SDS011;7383;52.354;9.756;2023-04-19T03:46:29;1.67;;;1.58;;
14592;SDS011;7383;52.354;9.756;2023-04-19T03:48:57;1.95;;;1.85;;
14592;SDS011;7383;52.354;9.756;2023-04-19T03:51:26;1.92;;;1.75;;
14592;SDS011;7383;52.354;9.756;2023-04-19T03:53:53;1.60;;;1.50;;
14592;SDS011;7383;52.354;9.756;2023-04-19T03:56:21;1.95;;;1.85;;
14592;SDS011;7383;52.354;9.756;2023-04-19T03:58:50;3.92;;;1.95;;
14592;SDS011;7383;52.354;9.756;2023-04-19T04:01:17;1.60;;;1.50;;
14592;SDS011;7383;52.354;9.756;2023-04-19T04:03:44;1.85;;;1.60;;
14592;SDS011;7383;52.354;9.756;2023-04-19T04:06:11;1.80;;;1.70;;
14592;SDS011;7383;52.354;9.756;2023-04-19T04:08:37;1.70;;;1.60;;
14592;SDS011;7383;52.354;9.756;2023-04-19T04:11:04;1.70;;;1.60;;
14592;SDS011;7383;52.354;9.756;2023-04-19T04:13:31;2.05;;;1.85;;
14592;SDS011;7383;52.354;9.756;2023-04-19T04:15:59;1.80;;;1.70;;
14592;SDS011;7383;52.354;9.756;2023-04-19T04:18:25;1.55;;;1.55;;
14592;SDS011;7383;52.354;9.756;2023-04-19T04:20:52;2.00;;;1.80;;
14592;SDS011;7383;52.354;9.756;2023-04-19T04:23:19;1.73;;;1.63;;
14592;SDS011;7383;52.354;9.756;2023-04-19T04:25:46;2.10;;;1.88;;
14592;SDS011;7383;52.354;9.756;2023-04-19T04:28:13;1.80;;;1.70;;
14592;SDS011;7383;52.354;9.756;2023-04-19T04:30:39;1.80;;;1.70;;
14592;SDS011;7383;52.354;9.756;2023-04-19T04:33:08;1.85;;;1.75;;
14592;SDS011;7383;52.354;9.756;2023-04-19T04:35:36;1.98;;;1.88;;
14592;SDS011;7383;52.354;9.756;2023-04-19T04:38:02;1.90;;;1.80;;
14592;SDS011;7383;52.354;9.756;2023-04-19T04:40:30;2.20;;;2.00;;
14592;SDS011;7383;52.354;9.756;2023-04-19T04:42:57;1.77;;;1.67;;
14592;SDS011;7383;52.354;9.756;2023-04-19T04:45:28;2.00;;;1.90;;
14592;SDS011;7383;52.354;9.756;2023-04-19T04:47:56;2.00;;;1.90;;
14592;SDS011;7383;52.354;9.756;2023-04-19T04:50:23;2.00;;;1.90;;
14592;SDS011;7383;52.354;9.756;2023-04-19T04:52:50;2.13;;;2.03;;
14592;SDS011;7383;52.354;9.756;2023-04-19T04:55:18;2.10;;;1.90;;
14592;SDS011;7383;52.354;9.756;2023-04-19T04:57:45;1.92;;;1.83;;
14592;SDS011;7383;52.354;9.756;2023-04-19T05:00:12;1.77;;;1.67;;
14592;SDS011;7383;52.354;9.756;2023-04-19T05:02:39;2.00;;;1.90;;
14592;SDS011;7383;52.354;9.756;2023-04-19T05:05:06;1.83;;;1.73;;
14592;SDS011;7383;52.354;9.756;2023-04-19T05:07:36;1.88;;;1.77;;
14592;SDS011;7383;52.354;9.756;2023-04-19T05:10:03;2.97;;;2.28;;
14592;SDS011;7383;52.354;9.756;2023-04-19T05:12:30;2.05;;;1.85;;
14592;SDS011;7383;52.354;9.756;2023-04-19T05:14:56;2.33;;;2.03;;
14592;SDS011;7383;52.354;9.756;2023-04-19T05:17:23;1.83;;;1.73;;
14592;SDS011;7383;52.354;9.756;2023-04-19T05:19:49;1.95;;;1.85;;
14592;SDS011;7383;52.354;9.756;2023-04-19T05:22:16;2.17;;;2.08;;
14592;SDS011;7383;52.354;9.756;2023-04-19T05:24:44;2.30;;;2.15;;
14592;SDS011;7383;52.354;9.756;2023-04-19T05:27:11;2.40;;;2.20;;
14592;SDS011;7383;52.354;9.756;2023-04-19T05:29:39;2.05;;;1.95;;
14592;SDS011;7383;52.354;9.756;2023-04-19T05:32:05;1.98;;;1.88;;
14592;SDS011;7383;52.354;9.756;2023-04-19T05:34:32;2.15;;;1.92;;
14592;SDS011;7383;52.354;9.756;2023-04-19T05:36:58;2.03;;;1.83;;
14592;SDS011;7383;52.354;9.756;2023-04-19T05:39:25;2.60;;;2.40;;
14592;SDS011;7383;52.354;9.756;2023-04-19T05:41:53;2.00;;;1.90;;
14592;SDS011;7383;52.354;9.756;2023-04-19T05:44:19;2.53;;;1.70;;
14592;SDS011;7383;52.354;9.756;2023-04-19T05:46:46;1.75;;;1.65;;
14592;SDS011;7383;52.354;9.756;2023-04-19T05:49:12;2.13;;;1.67;;
14592;SDS011;7383;52.354;9.756;2023-04-19T05:51:39;2.17;;;1.98;;
14592;SDS011;7383;52.354;9.756;2023-04-19T05:54:05;1.98;;;1.80;;
14592;SDS011;7383;52.354;9.756;2023-04-19T05:56:36;2.25;;;2.05;;
14592;SDS011;7383;52.354;9.756;2023-04-19T05:59:04;2.20;;;1.98;;
14592;SDS011;7383;52.354;9.756;2023-04-19T06:01:32;1.92;;;1.83;;
14592;SDS011;7383;52.354;9.756;2023-04-19T06:03:59;2.00;;;1.90;;
14592;SDS011;7383;52.354;9.756;2023-04-19T06:06:25;1.90;;;1.80;;
14592;SDS011;7383;52.354;9.756;2023-04-19T06:08:52;1.80;;;1.70;;
14592;SDS011;7383;52.354;9.756;2023-04-19T06:11:18;1.65;;;1.55;;
14592;SDS011;7383;52.354;9.756;2023-04-19T06:13:45;1.73;;;1.63;;
14592;SDS011;7383;52.354;9.756;2023-04-19T06:16:13;2.10;;;1.90;;
14592;SDS011;7383;52.354;9.756;2023-04-19T06:18:39;2.25;;;1.88;;
14592;SDS011;7383;52.354;9.756;2023-04-19T06:21:07;1.70;;;1.60;;
14592;SDS011;7383;52.354;9.756;2023-04-19T06:23:33;1.58;;;1.48;;
14592;SDS011;7383;52.354;9.756;2023-04-19T06:26:00;1.63;;;1.52;;
14592;SDS011;7383;52.354;9.756;2023-04-19T06:28:26;1.80;;;1.70;;
14592;SDS011;7383;52.354;9.756;2023-04-19T06:30:53;1.60;;;1.50;;
14592;SDS011;7383;52.354;9.756;2023-04-19T06:33:21;1.30;;;1.30;;
14592;SDS011;7383;52.354;9.756;2023-04-19T06:35:47;1.48;;;1.38;;
14592;SDS011;7383;52.354;9.756;2023-04-19T06:38:14;1.60;;;1.50;;
14592;SDS011;7383;52.354;9.756;2023-04-19T06:40:40;1.45;;;1.35;;
14592;SDS011;7383;52.354;9.756;2023-04-19T06:43:07;1.50;;;1.40;;
14592;SDS011;7383;52.354;9.756;2023-04-19T06:45:33;1.50;;;1.40;;
14592;SDS011;7383;52.354;9.756;2023-04-19T06:48:00;1.58;;;1.40;;
14592;SDS011;7383;52.354;9.756;2023-04-19T06:50:29;1.58;;;1.48;;
14592;SDS011;7383;52.354;9.756;2023-04-19T06:52:55;1.33;;;1.25;;
14592;SDS011;7383;52.354;9.756;2023-04-19T06:55:22;1.75;;;1.30;;
14592;SDS011;7383;52.354;9.756;2023-04-19T06:57:49;1.23;;;1.23;;
14592;SDS011;7383;52.354;9.756;2023-04-19T07:00:15;1.40;;;1.30;;
14592;SDS011;7383;52.354;9.756;2023-04-19T07:02:44;1.50;;;1.40;;
14592;SDS011;7383;52.354;9.756;2023-04-19T07:05:10;1.40;;;1.30;;
14592;SDS011;7383;52.354;9.756;2023-04-19T07:07:41;1.40;;;1.30;;
14592;SDS011;7383;52.354;9.756;2023-04-19T07:10:08;1.60;;;1.50;;
14592;SDS011;7383;52.354;9.756;2023-04-19T07:12:35;1.38;;;1.30;;
14592;SDS011;7383;52.354;9.756;2023-04-19T07:15:02;1.65;;;1.55;;
14592;SDS011;7383;52.354;9.756;2023-04-19T07:17:29;1.45;;;1.35;;
14592;SDS011;7383;52.354;9.756;2023-04-19T07:19:56;1.83;;;1.50;;
14592;SDS011;7383;52.354;9.756;2023-04-19T07:22:22;2.03;;;1.60;;
14592;SDS011;7383;52.354;9.756;2023-04-19T07:24:50;1.42;;;1.42;;
14592;SDS011;7383;52.354;9.756;2023-04-19T07:27:17;1.42;;;1.40;;
14592;SDS011;7383;52.354;9.756;2023-04-19T07:29:43;1.20;;;1.10;;
14592;SDS011;7383;52.354;9.756;2023-04-19T07:32:10;1.38;;;1.33;;
14592;SDS011;7383;52.354;9.756;2023-04-19T07:34:37;1.63;;;1.45;;
14592;SDS011;7383;52.354;9.756;2023-04-19T07:37:05;1.80;;;1.30;;
14592;SDS011;7383;52.354;9.756;2023-04-19T07:39:31;1.40;;;1.30;;
14592;SDS011;7383;52.354;9.756;2023-04-19T07:42:00;1.40;;;1.30;;
14592;SDS011;7383;52.354;9.756;2023-04-19T07:44:26;1.50;;;1.40;;
14592;SDS011;7383;52.354;9.756;2023-04-19T07:46:53;1.75;;;1.65;;
14592;SDS011;7383;52.354;9.756;2023-04-19T07:49:19;1.40;;;1.30;;
14592;SDS011;7383;52.354;9.756;2023-04-19T07:51:46;1.70;;;1.60;;
14592;SDS011;7383;52.354;9.756;2023-04-19T07:54:14;1.63;;;1.52;;
14592;SDS011;7383;52.354;9.756;2023-04-19T07:56:44;1.67;;;1.58;;
14592;SDS011;7383;52.354;9.756;2023-04-19T07:59:12;1.40;;;1.33;;
14592;SDS011;7383;52.354;9.756;2023-04-19T08:01:38;1.70;;;1.60;;
14592;SDS011;7383;52.354;9.756;2023-04-19T08:04:05;1.80;;;1.70;;
14592;SDS011;7383;52.354;9.756;2023-04-19T08:06:32;1.67;;;1.58;;
14592;SDS011;7383;52.354;9.756;2023-04-19T08:08:58;2.00;;;1.55;;
14592;SDS011;7383;52.354;9.756;2023-04-19T08:11:25;1.52;;;1.45;;
14592;SDS011;7383;52.354;9.756;2023-04-19T08:13:51;1.65;;;1.55;;
14592;SDS011;7383;52.354;9.756;2023-04-19T08:16:19;1.55;;;1.45;;
14592;SDS011;7383;52.354;9.756;2023-04-19T08:18:47;1.50;;;1.40;;
14592;SDS011;7383;52.354;9.756;2023-04-19T08:21:16;1.58;;;1.48;;
14592;SDS011;7383;52.354;9.756;2023-04-19T08:23:42;1.83;;;1.73;;
14592;SDS011;7383;52.354;9.756;2023-04-19T08:26:08;1.92;;;1.80;;
14592;SDS011;7383;52.354;9.756;2023-04-19T08:28:35;1.60;;;1.50;;
14592;SDS011;7383;52.354;9.756;2023-04-19T08:31:04;1.73;;;1.63;;
14592;SDS011;7383;52.354;9.756;2023-04-19T08:33:32;1.80;;;1.70;;
14592;SDS011;7383;52.354;9.756;2023-04-19T08:36:00;1.67;;;1.58;;
14592;SDS011;7383;52.354;9.756;2023-04-19T08:38:26;1.67;;;1.58;;
14592;SDS011;7383;52.354;9.756;2023-04-19T08:40:53;1.95;;;1.65;;
14592;SDS011;7383;52.354;9.756;2023-04-19T08:43:20;1.80;;;1.70;;
14592;SDS011;7383;52.354;9.756;2023-04-19T08:45:49;1.90;;;1.80;;
14592;SDS011;7383;52.354;9.756;2023-04-19T08:48:16;1.60;;;1.50;;
14592;SDS011;7383;52.354;9.756;2023-04-19T08:50:44;1.60;;;1.50;;
14592;SDS011;7383;52.354;9.756;2023-04-19T08:53:12;1.70;;;1.60;;
14592;SDS011;7383;52.354;9.756;2023-04-19T08:55:40;1.35;;;1.25;;
14592;SDS011;7383;52.354;9.756;2023-04-19T08:58:07;1.80;;;1.70;;
14592;SDS011;7383;52.354;9.756;2023-04-19T09:00:36;1.95;;;1.73;;
14592;SDS011;7383;52.354;9.756;2023-04-19T09:03:04;1.70;;;1.60;;
14592;SDS011;7383;52.354;9.756;2023-04-19T09:05:32;1.75;;;1.60;;
14592;SDS011;7383;52.354;9.756;2023-04-19T09:08:10;1.77;;;1.67;;
14592;SDS011;7383;52.354;9.756;2023-04-19T09:10:51;1.73;;;1.63;;
14592;SDS011;7383;52.354;9.756;2023-04-19T09:13:19;1.70;;;1.60;;
14592;SDS011;7383;52.354;9.756;2023-04-19T09:15:45;1.70;;;1.60;;
14592;SDS011;7383;52.354;9.756;2023-04-19T09:18:12;2.45;;;1.70;;
14592;SDS011;7383;52.354;9.756;2023-04-19T09:20:40;1.40;;;1.40;;
14592;SDS011;7383;52.354;9.756;2023-04-19T09:23:08;1.70;;;1.60;;
14592;SDS011;7383;52.354;9.756;2023-04-19T09:25:38;1.60;;;1.50;;
14592;SDS011;7383;52.354;9.756;2023-04-19T09:28:07;1.70;;;1.58;;
14592;SDS011;7383;52.354;9.756;2023-04-19T09:30:35;1.50;;;1.40;;
14592;SDS011;7383;52.354;9.756;2023-04-19T09:33:04;1.40;;;1.40;;
14592;SDS011;7383;52.354;9.756;2023-04-19T09:35:40;1.60;;;1.50;;
14592;SDS011;7383;52.354;9.756;2023-04-19T09:38:08;1.45;;;1.35;;
14592;SDS011;7383;52.354;9.756;2023-04-19T09:40:35;1.60;;;1.50;;
14592;SDS011;7383;52.354;9.756;2023-04-19T09:43:04;1.70;;;1.60;;
14592;SDS011;7383;52.354;9.756;2023-04-19T09:45:38;1.70;;;1.60;;
14592;SDS011;7383;52.354;9.756;2023-04-19T09:48:06;1.67;;;1.58;;
14592;SDS011;7383;52.354;9.756;2023-04-19T09:50:33;1.63;;;1.52;;
14592;SDS011;7383;52.354;9.756;2023-04-19T09:52:59;1.60;;;1.50;;
14592;SDS011;7383;52.354;9.756;2023-04-19T09:55:27;1.35;;;1.35;;
14592;SDS011;7383;52.354;9.756;2023-04-19T09:57:54;1.60;;;1.50;;
14592;SDS011;7383;52.354;9.756;2023-04-19T10:00:22;2.33;;;1.60;;
14592;SDS011;7383;52.354;9.756;2023-04-19T10:02:50;1.40;;;1.40;;
14592;SDS011;7383;52.354;9.756;2023-04-19T10:05:21;1.90;;;1.80;;
14592;SDS011;7383;52.354;9.756;2023-04-19T10:07:50;1.70;;;1.60;;
14592;SDS011;7383;52.354;9.756;2023-04-19T10:10:19;1.65;;;1.55;;
14592;SDS011;7383;52.354;9.756;2023-04-19T10:12:47;1.90;;;1.80;;
14592;SDS011;7383;52.354;9.756;2023-04-19T10:15:17;1.80;;;1.70;;
14592;SDS011;7383;52.354;9.756;2023-04-19T10:17:48;1.20;;;1.20;;
14592;SDS011;7383;52.354;9.756;2023-04-19T10:20:16;1.50;;;1.40;;
14592;SDS011;7383;52.354;9.756;2023-04-19T10:22:47;1.45;;;1.35;;
14592;SDS011;7383;52.354;9.756;2023-04-19T10:25:14;1.98;;;1.80;;
14592;SDS011;7383;52.354;9.756;2023-04-19T10:27:42;1.50;;;1.40;;
14592;SDS011;7383;52.354;9.756;2023-04-19T10:30:17;2.38;;;1.60;;
14592;SDS011;7383;52.354;9.756;2023-04-19T10:32:50;1.77;;;1.63;;
14592;SDS011;7383;52.354;9.756;2023-04-19T10:35:20;1.80;;;1.70;;
14592;SDS011;7383;52.354;9.756;2023-04-19T10:38:01;1.75;;;1.65;;
14592;SDS011;7383;52.354;9.756;2023-04-19T10:43:25;1.50;;;1.40;;
14592;SDS011;7383;52.354;9.756;2023-04-19T10:45:54;1.27;;;1.27;;
14592;SDS011;7383;52.354;9.756;2023-04-19T10:48:34;1.60;;;1.50;;
14592;SDS011;7383;52.354;9.756;2023-04-19T10:51:03;1.58;;;1.48;;
14592;SDS011;7383;52.354;9.756;2023-04-19T10:53:47;1.60;;;1.50;;
14592;SDS011;7383;52.354;9.756;2023-04-19T10:56:16;1.25;;;1.25;;
14592;SDS011;7383;52.354;9.756;2023-04-19T11:01:39;1.58;;;1.50;;
14592;SDS011;7383;52.354;9.756;2023-04-19T11:04:12;1.60;;;1.50;;
14592;SDS011;7383;52.354;9.756;2023-04-19T11:06:55;1.50;;;1.40;;
14592;SDS011;7383;52.354;9.756;2023-04-19T11:09:26;1.70;;;1.60;;
14592;SDS011;7383;52.354;9.756;2023-04-19T11:11:56;1.80;;;1.70;;
14592;SDS011;7383;52.354;9.756;2023-04-19T11:14:27;1.52;;;1.42;;
14592;SDS011;7383;52.354;9.756;2023-04-19T11:16:56;1.52;;;1.42;;
14592;SDS011;7383;52.354;9.756;2023-04-19T11:19:24;1.38;;;1.30;;
14592;SDS011;7383;52.354;9.756;2023-04-19T11:21:51;1.30;;;1.30;;
14592;SDS011;7383;52.354;9.756;2023-04-19T11:24:17;1.52;;;1.42;;
14592;SDS011;7383;52.354;9.756;2023-04-19T11:26:45;1.50;;;1.40;;
14592;SDS011;7383;52.354;9.756;2023-04-19T11:29:12;1.50;;;1.40;;
14592;SDS011;7383;52.354;9.756;2023-04-19T11:31:40;1.83;;;1.73;;
14592;SDS011;7383;52.354;9.756;2023-04-19T11:34:21;1.60;;;1.50;;
14592;SDS011;7383;52.354;9.756;2023-04-19T11:36:50;1.73;;;1.60;;
14592;SDS011;7383;52.354;9.756;2023-04-19T11:39:18;1.65;;;1.58;;
14592;SDS011;7383;52.354;9.756;2023-04-19T11:41:46;1.40;;;1.40;;
14592;SDS011;7383;52.354;9.756;2023-04-19T11:44:14;1.70;;;1.60;;
14592;SDS011;7383;52.354;9.756;2023-04-19T11:46:58;1.95;;;1.63;;
14592;SDS011;7383;52.354;9.756;2023-04-19T11:49:26;1.80;;;1.70;;
14592;SDS011;7383;52.354;9.756;2023-04-19T11:51:59;1.73;;;1.63;;
14592;SDS011;7383;52.354;9.756;2023-04-19T11:54:30;1.80;;;1.70;;
14592;SDS011;7383;52.354;9.756;2023-04-19T11:57:04;1.60;;;1.50;;
14592;SDS011;7383;52.354;9.756;2023-04-19T11:59:32;1.75;;;1.67;;
14592;SDS011;7383;52.354;9.756;2023-04-19T12:02:05;1.90;;;1.80;;
14592;SDS011;7383;52.354;9.756;2023-04-19T12:04:32;2.22;;;1.80;;
14592;SDS011;7383;52.354;9.756;2023-04-19T12:07:01;2.13;;;1.92;;
14592;SDS011;7383;52.354;9.756;2023-04-19T12:09:32;2.03;;;1.67;;
14592;SDS011;7383;52.354;9.756;2023-04-19T12:12:02;2.15;;;1.48;;
14592;SDS011;7383;52.354;9.756;2023-04-19T12:14:30;1.60;;;1.50;;
14592;SDS011;7383;52.354;9.756;2023-04-19T12:17:06;4.43;;;1.90;;
14592;SDS011;7383;52.354;9.756;2023-04-19T12:19:41;1.70;;;1.60;;
14592;SDS011;7383;52.354;9.756;2023-04-19T12:22:11;3.30;;;1.67;;
14592;SDS011;7383;52.354;9.756;2023-04-19T12:24:40;5.30;;;3.80;;
14592;SDS011;7383;52.354;9.756;2023-04-19T12:27:07;1.90;;;1.80;;
14592;SDS011;7383;52.354;9.756;2023-04-19T12:29:35;2.30;;;2.10;;
14592;SDS011;7383;52.354;9.756;2023-04-19T12:32:02;2.00;;;1.90;;
14592;SDS011;7383;52.354;9.756;2023-04-19T12:34:28;1.85;;;1.40;;
14592;SDS011;7383;52.354;9.756;2023-04-19T12:36:55;2.03;;;1.55;;
14592;SDS011;7383;52.354;9.756;2023-04-19T12:39:23;1.85;;;1.75;;
14592;SDS011;7383;52.354;9.756;2023-04-19T12:41:50;1.80;;;1.70;;
14592;SDS011;7383;52.354;9.756;2023-04-19T12:44:16;2.75;;;1.70;;
14592;SDS011;7383;52.354;9.756;2023-04-19T12:46:43;1.52;;;1.50;;
14592;SDS011;7383;52.354;9.756;2023-04-19T12:49:09;2.10;;;2.00;;
14592;SDS011;7383;52.354;9.756;2023-04-19T12:51:39;1.58;;;1.50;;
14592;SDS011;7383;52.354;9.756;2023-04-19T12:54:06;1.90;;;1.80;;
14592;SDS011;7383;52.354;9.756;2023-04-19T12:56:34;1.95;;;1.70;;
14592;SDS011;7383;52.354;9.756;2023-04-19T12:59:01;2.40;;;1.90;;
14592;SDS011;7383;52.354;9.756;2023-04-19T13:01:27;2.17;;;1.80;;
14592;SDS011;7383;52.354;9.756;2023-04-19T13:03:54;1.80;;;1.70;;
14592;SDS011;7383;52.354;9.756;2023-04-19T13:06:20;1.70;;;1.60;;
14592;SDS011;7383;52.354;9.756;2023-04-19T13:08:47;1.83;;;1.73;;
14592;SDS011;7383;52.354;9.756;2023-04-19T13:11:14;1.63;;;1.52;;
14592;SDS011;7383;52.354;9.756;2023-04-19T13:13:43;1.92;;;1.83;;
14592;SDS011;7383;52.354;9.756;2023-04-19T13:16:09;2.05;;;1.95;;
14592;SDS011;7383;52.354;9.756;2023-04-19T13:18:39;1.90;;;1.75;;
14592;SDS011;7383;52.354;9.756;2023-04-19T13:21:05;1.50;;;1.50;;
14592;SDS011;7383;52.354;9.756;2023-04-19T13:23:32;2.08;;;1.98;;
14592;SDS011;7383;52.354;9.756;2023-04-19T13:25:59;2.40;;;1.92;;
14592;SDS011;7383;52.354;9.756;2023-04-19T13:28:26;2.10;;;2.00;;
14592;SDS011;7383;52.354;9.756;2023-04-19T13:30:54;2.10;;;2.00;;
14592;SDS011;7383;52.354;9.756;2023-04-19T13:33:20;2.60;;;2.05;;
14592;SDS011;7383;52.354;9.756;2023-04-19T13:35:47;2.03;;;1.92;;
14592;SDS011;7383;52.354;9.756;2023-04-19T13:38:14;2.30;;;2.10;;
14592;SDS011;7383;52.354;9.756;2023-04-19T13:40:41;1.90;;;1.70;;
14592;SDS011;7383;52.354;9.756;2023-04-19T13:43:09;1.83;;;1.73;;
14592;SDS011;7383;52.354;9.756;2023-04-19T13:45:35;2.13;;;1.92;;
14592;SDS011;7383;52.354;9.756;2023-04-19T13:48:04;2.15;;;2.00;;
14592;SDS011;7383;52.354;9.756;2023-04-19T13:53:20;2.08;;;1.98;;
14592;SDS011;7383;52.354;9.756;2023-04-19T13:55:46;2.10;;;2.00;;
14592;SDS011;7383;52.354;9.756;2023-04-19T13:58:13;2.25;;;2.05;;
14592;SDS011;7383;52.354;9.756;2023-04-19T14:00:39;2.03;;;1.92;;
14592;SDS011;7383;52.354;9.756;2023-04-19T14:03:15;2.10;;;2.00;;
14592;SDS011;7383;52.354;9.756;2023-04-19T14:05:43;2.00;;;1.90;;
14592;SDS011;7383;52.354;9.756;2023-04-19T14:08:10;3.03;;;2.40;;
14592;SDS011;7383;52.354;9.756;2023-04-19T14:10:36;2.25;;;2.15;;
14592;SDS011;7383;52.354;9.756;2023-04-19T14:13:04;1.98;;;1.88;;
14592;SDS011;7383;52.354;9.756;2023-04-19T14:15:31;2.35;;;1.92;;
14592;SDS011;7383;52.354;9.756;2023-04-19T14:17:58;2.42;;;2.08;;
14592;SDS011;7383;52.354;9.756;2023-04-19T14:20:27;2.30;;;2.10;;
14592;SDS011;7383;52.354;9.756;2023-04-19T14:22:53;2.20;;;2.00;;
14592;SDS011;7383;52.354;9.756;2023-04-19T14:25:22;2.35;;;2.00;;
14592;SDS011;7383;52.354;9.756;2023-04-19T14:27:49;1.75;;;1.65;;
14592;SDS011;7383;52.354;9.756;2023-04-19T14:30:15;2.10;;;2.00;;
14592;SDS011;7383;52.354;9.756;2023-04-19T14:32:42;1.92;;;1.83;;
14592;SDS011;7383;52.354;9.756;2023-04-19T14:35:08;2.00;;;1.90;;
14592;SDS011;7383;52.354;9.756;2023-04-19T14:37:39;2.00;;;1.90;;
14592;SDS011;7383;52.354;9.756;2023-04-19T14:40:07;2.30;;;1.80;;
14592;SDS011;7383;52.354;9.756;2023-04-19T14:42:34;1.92;;;1.83;;
14592;SDS011;7383;52.354;9.756;2023-04-19T14:45:05;2.20;;;2.00;;
14592;SDS011;7383;52.354;9.756;2023-04-19T14:47:32;2.00;;;1.90;;
14592;SDS011;7383;52.354;9.756;2023-04-19T14:49:59;1.77;;;1.67;;
14592;SDS011;7383;52.354;9.756;2023-04-19T14:52:26;2.00;;;1.90;;
14592;SDS011;7383;52.354;9.756;2023-04-19T14:54:55;2.00;;;1.90;;
14592;SDS011;7383;52.354;9.756;2023-04-19T14:57:23;2.60;;;2.40;;
14592;SDS011;7383;52.354;9.756;2023-04-19T14:59:52;1.95;;;1.85;;
14592;SDS011;7383;52.354;9.756;2023-04-19T15:02:21;2.00;;;1.90;;
14592;SDS011;7383;52.354;9.756;2023-04-19T15:04:48;2.40;;;2.08;;
14592;SDS011;7383;52.354;9.756;2023-04-19T15:07:17;1.77;;;1.67;;
14592;SDS011;7383;52.354;9.756;2023-04-19T15:09:44;2.15;;;2.05;;
14592;SDS011;7383;52.354;9.756;2023-04-19T15:12:12;2.83;;;2.20;;